sensor_id;sensor_type;location;lat;lon;timestamp;pressure;altitude;pressure_sealevel;temperature;humidity
37856;BME280;23694;43.274;26.924;2022-08-19T00:00:15;98456.69;;;25.08;56.86
37856;BME280;23694;43.274;26.924;2022-08-19T00:02:42;98458.56;;;25.01;57.33
37856;BME280;23694;43.274;26.924;2022-08-19T00:05:10;98461.84;;;24.90;57.49
37856;BME280;23694;43.274;26.924;2022-08-19T00:07:36;98463.50;;;24.98;57.40
37856;BME280;23694;43.274;26.924;2022-08-19T00:10:05;98465.31;;;24.97;57.44
37856;BME280;23694;43.274;26.924;2022-08-19T00:12:33;98451.94;;;24.90;57.48
37856;BME280;23694;43.274;26.924;2022-08-19T00:14:59;98468.22;;;24.95;57.27
37856;BME280;23694;43.274;26.924;2022-08-19T00:17:25;98461.81;;;24.96;57.55
37856;BME280;23694;43.274;26.924;2022-08-19T00:19:51;98468.22;;;24.89;57.26
37856;BME280;23694;43.274;26.924;2022-08-19T00:22:17;98470.50;;;24.85;57.50
37856;BME280;23694;43.274;26.924;2022-08-19T00:24:44;98468.03;;;24.77;57.91
37856;BME280;23694;43.274;26.924;2022-08-19T00:27:11;98479.38;;;24.73;58.21
37856;BME280;23694;43.274;26.924;2022-08-19T00:29:38;98483.44;;;24.69;58.13
37856;BME280;23694;43.274;26.924;2022-08-19T00:32:04;98487.38;;;24.66;58.23
37856;BME280;23694;43.274;26.924;2022-08-19T00:34:30;98487.97;;;24.61;58.35
37856;BME280;23694;43.274;26.924;2022-08-19T00:36:57;98486.75;;;24.57;58.85
37856;BME280;23694;43.274;26.924;2022-08-19T00:39:23;98482.22;;;24.51;58.67
37856;BME280;23694;43.274;26.924;2022-08-19T00:41:50;98480.16;;;24.53;58.61
37856;BME280;23694;43.274;26.924;2022-08-19T00:44:22;98478.50;;;24.52;58.88
37856;BME280;23694;43.274;26.924;2022-08-19T00:46:50;98475.22;;;24.50;58.82
37856;BME280;23694;43.274;26.924;2022-08-19T00:49:20;98476.44;;;24.48;59.23
37856;BME280;23694;43.274;26.924;2022-08-19T00:51:52;98481.59;;;24.49;58.95
37856;BME280;23694;43.274;26.924;2022-08-19T00:54:20;98471.31;;;24.53;58.96
37856;BME280;23694;43.274;26.924;2022-08-19T00:56:48;98474.38;;;24.50;58.91
37856;BME280;23694;43.274;26.924;2022-08-19T00:59:16;98473.56;;;24.43;59.13
37856;BME280;23694;43.274;26.924;2022-08-19T01:01:43;98473.56;;;24.43;59.30
37856;BME280;23694;43.274;26.924;2022-08-19T01:04:10;98473.16;;;24.39;59.28
37856;BME280;23694;43.274;26.924;2022-08-19T01:06:37;98478.91;;;24.36;59.37
37856;BME280;23694;43.274;26.924;2022-08-19T01:09:04;98472.13;;;24.33;59.45
37856;BME280;23694;43.274;26.924;2022-08-19T01:11:34;98467.16;;;24.37;59.39
37856;BME280;23694;43.274;26.924;2022-08-19T01:14:01;98469.03;;;24.37;59.42
37856;BME280;23694;43.274;26.924;2022-08-19T01:16:29;98474.16;;;24.31;59.79
37856;BME280;23694;43.274;26.924;2022-08-19T01:18:57;98472.47;;;24.24;60.18
37856;BME280;23694;43.274;26.924;2022-08-19T01:21:42;98467.38;;;24.29;59.97
37856;BME280;23694;43.274;26.924;2022-08-19T01:24:11;98471.06;;;24.28;60.12
37856;BME280;23694;43.274;26.924;2022-08-19T01:26:40;98473.09;;;24.26;60.24
37856;BME280;23694;43.274;26.924;2022-08-19T01:29:07;98477.66;;;24.32;59.87
37856;BME280;23694;43.274;26.924;2022-08-19T01:31:34;98475.41;;;24.29;59.96
37856;BME280;23694;43.274;26.924;2022-08-19T01:34:01;98479.53;;;24.31;59.96
37856;BME280;23694;43.274;26.924;2022-08-19T01:36:38;98475.81;;;24.32;60.03
37856;BME280;23694;43.274;26.924;2022-08-19T01:39:09;98466.09;;;24.25;60.14
37856;BME280;23694;43.274;26.924;2022-08-19T01:41:36;98472.09;;;24.27;60.22
37856;BME280;23694;43.274;26.924;2022-08-19T01:44:03;98469.59;;;24.25;60.32
37856;BME280;23694;43.274;26.924;2022-08-19T01:46:31;98473.09;;;24.19;60.45
37856;BME280;23694;43.274;26.924;2022-08-19T01:48:58;98468.56;;;24.13;61.19
37856;BME280;23694;43.274;26.924;2022-08-19T01:51:24;98465.19;;;23.98;61.39
37856;BME280;23694;43.274;26.924;2022-08-19T01:53:51;98470.38;;;24.06;61.46
37856;BME280;23694;43.274;26.924;2022-08-19T01:56:18;98467.06;;;24.04;61.24
37856;BME280;23694;43.274;26.924;2022-08-19T01:58:58;98462.53;;;23.98;61.70
37856;BME280;23694;43.274;26.924;2022-08-19T02:01:25;98467.47;;;24.01;61.45
37856;BME280;23694;43.274;26.924;2022-08-19T02:03:51;98469.72;;;24.04;61.74
37856;BME280;23694;43.274;26.924;2022-08-19T02:06:20;98464.38;;;23.97;61.87
37856;BME280;23694;43.274;26.924;2022-08-19T02:08:46;98464.97;;;23.86;62.13
37856;BME280;23694;43.274;26.924;2022-08-19T02:11:28;98461.44;;;23.79;62.56
37856;BME280;23694;43.274;26.924;2022-08-19T02:13:58;98455.09;;;23.87;62.21
37856;BME280;23694;43.274;26.924;2022-08-19T02:16:24;98455.06;;;23.80;62.44
37856;BME280;23694;43.274;26.924;2022-08-19T02:18:50;98456.28;;;23.78;62.83
37856;BME280;23694;43.274;26.924;2022-08-19T02:21:18;98456.72;;;23.81;62.63
37856;BME280;23694;43.274;26.924;2022-08-19T02:23:45;98457.13;;;23.78;62.62
37856;BME280;23694;43.274;26.924;2022-08-19T02:26:12;98463.91;;;23.81;62.67
37856;BME280;23694;43.274;26.924;2022-08-19T02:28:40;98460.00;;;23.83;62.72
37856;BME280;23694;43.274;26.924;2022-08-19T02:31:10;98454.66;;;23.83;62.76
37856;BME280;23694;43.274;26.924;2022-08-19T02:33:37;98460.84;;;23.84;62.84
37856;BME280;23694;43.274;26.924;2022-08-19T02:36:05;98467.63;;;23.80;62.72
37856;BME280;23694;43.274;26.924;2022-08-19T02:38:31;98471.50;;;23.77;62.99
37856;BME280;23694;43.274;26.924;2022-08-19T02:41:00;98464.72;;;23.75;62.95
37856;BME280;23694;43.274;26.924;2022-08-19T02:43:28;98458.28;;;23.62;63.70
37856;BME280;23694;43.274;26.924;2022-08-19T02:45:54;98459.53;;;23.66;63.49
37856;BME280;23694;43.274;26.924;2022-08-19T02:48:23;98458.31;;;23.69;63.33
37856;BME280;23694;43.274;26.924;2022-08-19T02:50:51;98462.63;;;23.70;63.46
37856;BME280;23694;43.274;26.924;2022-08-19T02:53:24;98464.50;;;23.69;63.44
37856;BME280;23694;43.274;26.924;2022-08-19T02:55:52;98462.22;;;23.66;63.61
37856;BME280;23694;43.274;26.924;2022-08-19T02:58:19;98459.09;;;23.56;63.85
37856;BME280;23694;43.274;26.924;2022-08-19T03:00:48;98475.34;;;23.55;63.97
37856;BME280;23694;43.274;26.924;2022-08-19T03:03:15;98463.97;;;23.53;63.94
37856;BME280;23694;43.274;26.924;2022-08-19T03:05:42;98471.44;;;23.57;63.92
37856;BME280;23694;43.274;26.924;2022-08-19T03:08:09;98471.25;;;23.59;63.97
37856;BME280;23694;43.274;26.924;2022-08-19T03:10:46;98470.81;;;23.55;64.10
37856;BME280;23694;43.274;26.924;2022-08-19T03:13:14;98470.00;;;23.55;64.32
37856;BME280;23694;43.274;26.924;2022-08-19T03:15:43;98470.97;;;23.54;64.23
37856;BME280;23694;43.274;26.924;2022-08-19T03:18:10;98481.09;;;23.58;64.31
37856;BME280;23694;43.274;26.924;2022-08-19T03:20:58;98476.19;;;23.62;64.01
37856;BME280;23694;43.274;26.924;2022-08-19T03:23:24;98475.97;;;23.57;64.07
37856;BME280;23694;43.274;26.924;2022-08-19T03:25:52;98483.78;;;23.58;64.24
37856;BME280;23694;43.274;26.924;2022-08-19T03:28:20;98478.38;;;23.52;64.21
37856;BME280;23694;43.274;26.924;2022-08-19T03:31:05;98484.59;;;23.59;64.30
37856;BME280;23694;43.274;26.924;2022-08-19T03:33:33;98479.25;;;23.59;64.36
37856;BME280;23694;43.274;26.924;2022-08-19T03:38:39;98487.72;;;23.62;64.29
37856;BME280;23694;43.274;26.924;2022-08-19T03:41:09;98494.53;;;23.71;64.05
37856;BME280;23694;43.274;26.924;2022-08-19T03:43:37;98489.63;;;23.82;63.63
37856;BME280;23694;43.274;26.924;2022-08-19T03:46:14;98495.03;;;23.95;63.42
37856;BME280;23694;43.274;26.924;2022-08-19T03:48:42;98497.75;;;24.08;62.50
37856;BME280;23694;43.274;26.924;2022-08-19T03:51:21;98494.97;;;24.43;61.51
37856;BME280;23694;43.274;26.924;2022-08-19T03:53:48;98497.28;;;24.79;59.90
37856;BME280;23694;43.274;26.924;2022-08-19T03:56:14;98504.50;;;25.11;58.97
37856;BME280;23694;43.274;26.924;2022-08-19T03:58:41;98498.88;;;25.46;57.72
37856;BME280;23694;43.274;26.924;2022-08-19T04:01:10;98505.19;;;25.78;56.52
37856;BME280;23694;43.274;26.924;2022-08-19T04:03:37;98508.34;;;26.13;55.51
37856;BME280;23694;43.274;26.924;2022-08-19T04:06:23;98513.50;;;26.52;53.92
37856;BME280;23694;43.274;26.924;2022-08-19T04:08:51;98517.50;;;27.00;52.71
37856;BME280;23694;43.274;26.924;2022-08-19T04:11:24;98518.63;;;27.35;51.32
37856;BME280;23694;43.274;26.924;2022-08-19T04:13:52;98518.31;;;27.68;50.30
37856;BME280;23694;43.274;26.924;2022-08-19T04:16:20;98520.16;;;28.04;49.21
37856;BME280;23694;43.274;26.924;2022-08-19T04:18:48;98522.41;;;28.37;48.40
37856;BME280;23694;43.274;26.924;2022-08-19T04:21:23;98522.19;;;28.81;47.05
37856;BME280;23694;43.274;26.924;2022-08-19T04:23:51;98527.16;;;29.19;45.99
37856;BME280;23694;43.274;26.924;2022-08-19T04:26:21;98529.28;;;29.63;45.00
37856;BME280;23694;43.274;26.924;2022-08-19T04:28:48;98530.88;;;30.00;43.52
37856;BME280;23694;43.274;26.924;2022-08-19T04:31:19;98531.25;;;30.32;43.10
37856;BME280;23694;43.274;26.924;2022-08-19T04:33:46;98538.41;;;30.83;42.34
37856;BME280;23694;43.274;26.924;2022-08-19T04:36:18;98531.19;;;31.39;40.61
37856;BME280;23694;43.274;26.924;2022-08-19T04:38:50;98533.59;;;31.74;40.03
37856;BME280;23694;43.274;26.924;2022-08-19T04:41:16;98531.59;;;32.08;38.90
37856;BME280;23694;43.274;26.924;2022-08-19T04:44:00;98538.38;;;32.32;38.32
37856;BME280;23694;43.274;26.924;2022-08-19T04:46:28;98536.56;;;32.65;37.80
37856;BME280;23694;43.274;26.924;2022-08-19T04:48:57;98539.84;;;32.99;37.19
37856;BME280;23694;43.274;26.924;2022-08-19T04:51:23;98543.19;;;33.43;36.44
37856;BME280;23694;43.274;26.924;2022-08-19T04:53:49;98545.81;;;33.75;35.54
37856;BME280;23694;43.274;26.924;2022-08-19T04:56:17;98552.00;;;34.13;34.50
37856;BME280;23694;43.274;26.924;2022-08-19T04:58:45;98544.38;;;34.15;33.93
37856;BME280;23694;43.274;26.924;2022-08-19T05:01:13;98553.22;;;34.57;33.88
37856;BME280;23694;43.274;26.924;2022-08-19T05:03:40;98553.00;;;34.94;32.50
37856;BME280;23694;43.274;26.924;2022-08-19T05:06:09;98554.63;;;35.31;32.45
37856;BME280;23694;43.274;26.924;2022-08-19T05:08:38;98556.47;;;35.71;31.10
37856;BME280;23694;43.274;26.924;2022-08-19T05:13:39;98565.13;;;35.99;31.10
37856;BME280;23694;43.274;26.924;2022-08-19T05:16:05;98566.44;;;36.11;30.73
37856;BME280;23694;43.274;26.924;2022-08-19T05:18:32;98556.56;;;36.20;30.22
37856;BME280;23694;43.274;26.924;2022-08-19T05:21:19;98561.13;;;36.45;30.25
37856;BME280;23694;43.274;26.924;2022-08-19T05:24:05;98566.13;;;36.77;29.51
37856;BME280;23694;43.274;26.924;2022-08-19T05:26:39;98564.72;;;36.80;29.27
37856;BME280;23694;43.274;26.924;2022-08-19T05:29:06;98552.50;;;37.06;28.67
37856;BME280;23694;43.274;26.924;2022-08-19T05:31:34;98557.38;;;36.75;29.08
37856;BME280;23694;43.274;26.924;2022-08-19T05:34:01;98555.63;;;36.50;29.25
37856;BME280;23694;43.274;26.924;2022-08-19T05:36:32;98555.56;;;36.06;30.25
37856;BME280;23694;43.274;26.924;2022-08-19T05:39:01;98564.38;;;35.88;30.85
37856;BME280;23694;43.274;26.924;2022-08-19T05:41:27;98560.56;;;35.79;31.17
37856;BME280;23694;43.274;26.924;2022-08-19T05:43:57;98559.72;;;35.73;30.69
37856;BME280;23694;43.274;26.924;2022-08-19T05:46:23;98559.44;;;35.90;30.93
37856;BME280;23694;43.274;26.924;2022-08-19T05:48:50;98564.44;;;35.42;30.97
37856;BME280;23694;43.274;26.924;2022-08-19T05:51:16;98556.16;;;34.41;33.18
37856;BME280;23694;43.274;26.924;2022-08-19T05:53:42;98555.34;;;33.03;35.42
37856;BME280;23694;43.274;26.924;2022-08-19T05:56:14;98550.78;;;32.77;35.98
37856;BME280;23694;43.274;26.924;2022-08-19T05:58:44;98545.41;;;32.55;36.48
37856;BME280;23694;43.274;26.924;2022-08-19T06:01:14;98545.94;;;32.52;36.65
37856;BME280;23694;43.274;26.924;2022-08-19T06:03:40;98555.53;;;32.38;37.30
37856;BME280;23694;43.274;26.924;2022-08-19T06:06:09;98550.81;;;32.06;37.19
37856;BME280;23694;43.274;26.924;2022-08-19T06:08:36;98552.69;;;32.06;37.34
37856;BME280;23694;43.274;26.924;2022-08-19T06:11:21;98545.94;;;31.48;38.41
37856;BME280;23694;43.274;26.924;2022-08-19T06:13:51;98546.97;;;31.25;39.69
37856;BME280;23694;43.274;26.924;2022-08-19T06:16:19;98554.34;;;31.30;39.40
37856;BME280;23694;43.274;26.924;2022-08-19T06:18:50;98552.84;;;31.39;38.85
37856;BME280;23694;43.274;26.924;2022-08-19T06:21:27;98555.34;;;31.24;39.31
37856;BME280;23694;43.274;26.924;2022-08-19T06:23:55;98546.19;;;31.13;40.26
37856;BME280;23694;43.274;26.924;2022-08-19T06:26:22;98555.81;;;31.20;39.89
37856;BME280;23694;43.274;26.924;2022-08-19T06:28:50;98547.50;;;31.10;40.06
37856;BME280;23694;43.274;26.924;2022-08-19T06:31:19;98553.91;;;31.21;40.03
37856;BME280;23694;43.274;26.924;2022-08-19T06:33:46;98562.19;;;31.48;39.73
37856;BME280;23694;43.274;26.924;2022-08-19T06:36:19;98553.50;;;31.46;39.23
37856;BME280;23694;43.274;26.924;2022-08-19T06:38:46;98556.84;;;31.53;39.21
37856;BME280;23694;43.274;26.924;2022-08-19T06:41:13;98551.47;;;31.75;39.09
37856;BME280;23694;43.274;26.924;2022-08-19T06:43:39;98545.63;;;31.83;38.89
37856;BME280;23694;43.274;26.924;2022-08-19T06:46:10;98554.69;;;31.72;39.21
37856;BME280;23694;43.274;26.924;2022-08-19T06:48:38;98540.59;;;31.70;39.24
37856;BME280;23694;43.274;26.924;2022-08-19T06:51:04;98538.44;;;31.72;39.47
37856;BME280;23694;43.274;26.924;2022-08-19T06:53:32;98536.69;;;32.04;38.93
37856;BME280;23694;43.274;26.924;2022-08-19T06:55:58;98533.72;;;32.28;38.38
37856;BME280;23694;43.274;26.924;2022-08-19T06:58:29;98533.16;;;32.26;38.17
37856;BME280;23694;43.274;26.924;2022-08-19T07:01:07;98535.00;;;32.47;38.28
37856;BME280;23694;43.274;26.924;2022-08-19T07:03:35;98540.00;;;32.55;37.72
37856;BME280;23694;43.274;26.924;2022-08-19T07:06:11;98541.59;;;32.29;38.07
37856;BME280;23694;43.274;26.924;2022-08-19T07:08:38;98537.72;;;31.98;38.11
37856;BME280;23694;43.274;26.924;2022-08-19T07:11:10;98541.75;;;31.96;38.42
37856;BME280;23694;43.274;26.924;2022-08-19T07:13:37;98540.09;;;31.95;38.26
37856;BME280;23694;43.274;26.924;2022-08-19T07:16:07;98536.75;;;32.09;37.80
37856;BME280;23694;43.274;26.924;2022-08-19T07:18:34;98529.91;;;32.02;38.36
37856;BME280;23694;43.274;26.924;2022-08-19T07:21:06;98537.25;;;31.84;38.56
37856;BME280;23694;43.274;26.924;2022-08-19T07:23:33;98537.75;;;31.81;38.91
37856;BME280;23694;43.274;26.924;2022-08-19T07:26:08;98529.16;;;31.68;39.20
37856;BME280;23694;43.274;26.924;2022-08-19T07:28:34;98525.81;;;31.99;38.67
37856;BME280;23694;43.274;26.924;2022-08-19T07:31:08;98522.75;;;32.17;38.16
37856;BME280;23694;43.274;26.924;2022-08-19T07:33:35;98527.03;;;32.13;38.08
37856;BME280;23694;43.274;26.924;2022-08-19T07:36:07;98526.03;;;32.20;38.15
37856;BME280;23694;43.274;26.924;2022-08-19T07:38:36;98530.78;;;32.29;37.58
37856;BME280;23694;43.274;26.924;2022-08-19T07:41:02;98526.78;;;32.15;38.17
37856;BME280;23694;43.274;26.924;2022-08-19T07:43:28;98520.34;;;32.21;37.83
37856;BME280;23694;43.274;26.924;2022-08-19T07:45:55;98521.41;;;32.42;37.71
37856;BME280;23694;43.274;26.924;2022-08-19T07:48:26;98521.38;;;32.15;38.44
37856;BME280;23694;43.274;26.924;2022-08-19T07:50:54;98525.28;;;32.51;37.98
37856;BME280;23694;43.274;26.924;2022-08-19T07:53:21;98528.31;;;32.82;37.03
37856;BME280;23694;43.274;26.924;2022-08-19T07:55:48;98533.56;;;32.93;37.29
37856;BME280;23694;43.274;26.924;2022-08-19T07:58:17;98531.72;;;32.99;36.36
37856;BME280;23694;43.274;26.924;2022-08-19T08:00:46;98531.59;;;32.84;36.92
37856;BME280;23694;43.274;26.924;2022-08-19T08:03:14;98528.91;;;32.57;37.35
37856;BME280;23694;43.274;26.924;2022-08-19T08:05:41;98527.81;;;32.85;37.23
37856;BME280;23694;43.274;26.924;2022-08-19T08:08:26;98525.94;;;32.90;35.86
37856;BME280;23694;43.274;26.924;2022-08-19T08:11:01;98522.00;;;33.08;36.26
37856;BME280;23694;43.274;26.924;2022-08-19T08:13:27;98515.66;;;33.29;35.78
37856;BME280;23694;43.274;26.924;2022-08-19T08:15:54;98518.09;;;33.26;35.87
37856;BME280;23694;43.274;26.924;2022-08-19T08:18:20;98513.47;;;33.26;35.63
37856;BME280;23694;43.274;26.924;2022-08-19T08:20:47;98523.44;;;33.53;34.68
37856;BME280;23694;43.274;26.924;2022-08-19T08:23:13;98521.88;;;33.67;34.16
37856;BME280;23694;43.274;26.924;2022-08-19T08:25:48;98517.53;;;33.71;34.29
37856;BME280;23694;43.274;26.924;2022-08-19T08:28:15;98511.69;;;33.84;34.21
37856;BME280;23694;43.274;26.924;2022-08-19T08:30:41;98515.63;;;33.66;33.91
37856;BME280;23694;43.274;26.924;2022-08-19T08:33:09;98514.75;;;33.56;33.37
37856;BME280;23694;43.274;26.924;2022-08-19T08:35:35;98520.63;;;33.37;32.65
37856;BME280;23694;43.274;26.924;2022-08-19T08:38:02;98524.16;;;33.38;33.26
37856;BME280;23694;43.274;26.924;2022-08-19T08:40:39;98515.00;;;33.49;33.60
37856;BME280;23694;43.274;26.924;2022-08-19T08:45:35;98506.63;;;33.61;33.05
37856;BME280;23694;43.274;26.924;2022-08-19T08:48:14;98506.63;;;33.61;32.64
37856;BME280;23694;43.274;26.924;2022-08-19T08:50:44;98515.09;;;33.22;33.74
37856;BME280;23694;43.274;26.924;2022-08-19T08:53:14;98506.66;;;33.19;33.50
37856;BME280;23694;43.274;26.924;2022-08-19T08:55:42;98502.25;;;33.13;33.76
37856;BME280;23694;43.274;26.924;2022-08-19T08:58:28;98502.69;;;32.67;35.02
37856;BME280;23694;43.274;26.924;2022-08-19T09:00:56;98503.19;;;32.37;35.07
37856;BME280;23694;43.274;26.924;2022-08-19T09:03:27;98505.69;;;32.17;34.83
37856;BME280;23694;43.274;26.924;2022-08-19T09:06:02;98509.72;;;32.14;35.40
37856;BME280;23694;43.274;26.924;2022-08-19T09:11:34;98512.44;;;32.14;35.24
37856;BME280;23694;43.274;26.924;2022-08-19T09:14:22;98512.81;;;32.50;34.49
37856;BME280;23694;43.274;26.924;2022-08-19T09:16:50;98511.97;;;32.76;34.05
37856;BME280;23694;43.274;26.924;2022-08-19T09:19:17;98515.72;;;32.70;33.42
37856;BME280;23694;43.274;26.924;2022-08-19T09:21:43;98511.38;;;32.69;33.88
37856;BME280;23694;43.274;26.924;2022-08-19T09:24:09;98500.19;;;32.93;33.79
37856;BME280;23694;43.274;26.924;2022-08-19T09:26:35;98505.03;;;32.86;33.77
37856;BME280;23694;43.274;26.924;2022-08-19T09:29:01;98500.53;;;33.01;33.56
37856;BME280;23694;43.274;26.924;2022-08-19T09:31:31;98497.00;;;33.33;33.19
37856;BME280;23694;43.274;26.924;2022-08-19T09:33:58;98500.94;;;33.62;32.57
37856;BME280;23694;43.274;26.924;2022-08-19T09:36:27;98495.69;;;33.46;33.24
37856;BME280;23694;43.274;26.924;2022-08-19T09:38:56;98496.91;;;33.23;33.81
37856;BME280;23694;43.274;26.924;2022-08-19T09:41:23;98504.22;;;33.22;33.55
37856;BME280;23694;43.274;26.924;2022-08-19T09:43:52;98504.59;;;33.36;33.42
37856;BME280;23694;43.274;26.924;2022-08-19T09:46:19;98495.78;;;33.61;32.43
37856;BME280;23694;43.274;26.924;2022-08-19T09:48:50;98505.84;;;33.70;32.11
37856;BME280;23694;43.274;26.924;2022-08-19T09:51:22;98489.16;;;33.89;32.01
37856;BME280;23694;43.274;26.924;2022-08-19T09:53:50;98496.63;;;33.71;31.54
37856;BME280;23694;43.274;26.924;2022-08-19T09:56:18;98492.50;;;33.59;31.45
37856;BME280;23694;43.274;26.924;2022-08-19T09:58:45;98485.97;;;33.55;31.88
37856;BME280;23694;43.274;26.924;2022-08-19T10:01:20;98487.34;;;33.57;31.60
37856;BME280;23694;43.274;26.924;2022-08-19T10:03:49;98482.81;;;33.26;32.11
37856;BME280;23694;43.274;26.924;2022-08-19T10:06:16;98483.31;;;33.70;32.23
37856;BME280;23694;43.274;26.924;2022-08-19T10:08:43;98485.88;;;33.82;31.36
37856;BME280;23694;43.274;26.924;2022-08-19T10:11:09;98491.97;;;33.62;31.83
37856;BME280;23694;43.274;26.924;2022-08-19T10:13:35;98487.25;;;33.89;31.45
37856;BME280;23694;43.274;26.924;2022-08-19T10:16:07;98487.00;;;34.01;30.83
37856;BME280;23694;43.274;26.924;2022-08-19T10:18:35;98484.31;;;34.16;31.19
37856;BME280;23694;43.274;26.924;2022-08-19T10:23:31;98485.72;;;33.61;30.97
37856;BME280;23694;43.274;26.924;2022-08-19T10:26:00;98494.53;;;33.31;32.04
37856;BME280;23694;43.274;26.924;2022-08-19T10:28:26;98488.97;;;33.58;31.25
37856;BME280;23694;43.274;26.924;2022-08-19T10:30:52;98488.22;;;33.78;31.47
37856;BME280;23694;43.274;26.924;2022-08-19T10:33:18;98487.31;;;34.20;31.22
37856;BME280;23694;43.274;26.924;2022-08-19T10:35:44;98486.25;;;34.26;29.81
37856;BME280;23694;43.274;26.924;2022-08-19T10:38:12;98492.22;;;34.18;30.29
37856;BME280;23694;43.274;26.924;2022-08-19T10:40:38;98488.63;;;34.02;29.81
37856;BME280;23694;43.274;26.924;2022-08-19T10:43:04;98481.66;;;33.64;30.49
37856;BME280;23694;43.274;26.924;2022-08-19T10:45:30;98484.78;;;33.83;29.40
37856;BME280;23694;43.274;26.924;2022-08-19T10:47:56;98489.19;;;33.99;29.35
37856;BME280;23694;43.274;26.924;2022-08-19T10:50:22;98494.38;;;34.21;28.81
37856;BME280;23694;43.274;26.924;2022-08-19T10:53:08;98489.50;;;34.28;28.72
37856;BME280;23694;43.274;26.924;2022-08-19T10:55:34;98495.47;;;34.20;29.61
37856;BME280;23694;43.274;26.924;2022-08-19T10:58:20;98489.22;;;34.14;29.24
37856;BME280;23694;43.274;26.924;2022-08-19T11:00:53;98485.19;;;34.42;28.80
37856;BME280;23694;43.274;26.924;2022-08-19T11:03:20;98490.91;;;34.36;28.36
37856;BME280;23694;43.274;26.924;2022-08-19T11:05:46;98481.16;;;34.60;28.25
37856;BME280;23694;43.274;26.924;2022-08-19T11:08:14;98486.31;;;34.67;27.65
37856;BME280;23694;43.274;26.924;2022-08-19T11:10:43;98487.69;;;34.79;27.50
37856;BME280;23694;43.274;26.924;2022-08-19T11:13:09;98478.72;;;35.14;27.35
37856;BME280;23694;43.274;26.924;2022-08-19T11:15:35;98496.91;;;35.44;27.46
37856;BME280;23694;43.274;26.924;2022-08-19T11:18:03;98480.91;;;34.97;27.49
37856;BME280;23694;43.274;26.924;2022-08-19T11:20:29;98492.31;;;34.79;27.37
37856;BME280;23694;43.274;26.924;2022-08-19T11:22:56;98481.69;;;34.77;28.22
37856;BME280;23694;43.274;26.924;2022-08-19T11:25:22;98465.94;;;34.64;27.93
37856;BME280;23694;43.274;26.924;2022-08-19T11:27:48;98471.91;;;34.96;28.57
37856;BME280;23694;43.274;26.924;2022-08-19T11:30:16;98469.47;;;34.64;27.63
37856;BME280;23694;43.274;26.924;2022-08-19T11:32:42;98462.94;;;34.60;28.12
37856;BME280;23694;43.274;26.924;2022-08-19T11:35:09;98469.47;;;34.75;27.95
37856;BME280;23694;43.274;26.924;2022-08-19T11:37:36;98456.13;;;34.63;28.28
37856;BME280;23694;43.274;26.924;2022-08-19T11:40:05;98464.56;;;34.72;28.62
37856;BME280;23694;43.274;26.924;2022-08-19T11:42:31;98459.41;;;34.60;28.61
37856;BME280;23694;43.274;26.924;2022-08-19T11:45:16;98461.16;;;33.83;29.37
37856;BME280;23694;43.274;26.924;2022-08-19T11:47:42;98451.75;;;33.54;29.53
37856;BME280;23694;43.274;26.924;2022-08-19T11:50:09;98449.63;;;33.71;28.41
37856;BME280;23694;43.274;26.924;2022-08-19T11:52:35;98452.75;;;33.90;28.06
37856;BME280;23694;43.274;26.924;2022-08-19T11:55:02;98447.34;;;34.10;27.99
37856;BME280;23694;43.274;26.924;2022-08-19T11:57:28;98448.50;;;34.45;27.99
37856;BME280;23694;43.274;26.924;2022-08-19T11:59:54;98449.53;;;34.18;28.18
37856;BME280;23694;43.274;26.924;2022-08-19T12:02:21;98446.75;;;33.83;29.50
37856;BME280;23694;43.274;26.924;2022-08-19T12:04:47;98453.00;;;33.83;29.54
37856;BME280;23694;43.274;26.924;2022-08-19T12:07:13;98441.91;;;34.05;29.21
37856;BME280;23694;43.274;26.924;2022-08-19T12:09:39;98443.34;;;34.38;28.74
37856;BME280;23694;43.274;26.924;2022-08-19T12:12:06;98440.06;;;34.77;28.06
37856;BME280;23694;43.274;26.924;2022-08-19T12:14:32;98450.16;;;34.76;27.76
37856;BME280;23694;43.274;26.924;2022-08-19T12:16:58;98444.72;;;34.51;28.13
37856;BME280;23694;43.274;26.924;2022-08-19T12:19:24;98439.47;;;34.09;28.71
37856;BME280;23694;43.274;26.924;2022-08-19T12:21:51;98429.97;;;34.26;28.01
37856;BME280;23694;43.274;26.924;2022-08-19T12:24:18;98431.06;;;34.25;27.64
37856;BME280;23694;43.274;26.924;2022-08-19T12:26:49;98428.59;;;34.19;27.90
37856;BME280;23694;43.274;26.924;2022-08-19T12:29:15;98433.53;;;34.42;28.01
37856;BME280;23694;43.274;26.924;2022-08-19T12:31:41;98424.03;;;34.40;27.15
37856;BME280;23694;43.274;26.924;2022-08-19T12:34:07;98435.94;;;34.28;26.96
37856;BME280;23694;43.274;26.924;2022-08-19T12:36:33;98424.81;;;34.20;26.90
37856;BME280;23694;43.274;26.924;2022-08-19T12:39:00;98436.22;;;34.22;27.41
37856;BME280;23694;43.274;26.924;2022-08-19T12:41:26;98422.88;;;34.10;26.79
37856;BME280;23694;43.274;26.924;2022-08-19T12:43:52;98427.78;;;34.13;27.39
37856;BME280;23694;43.274;26.924;2022-08-19T12:46:19;98427.25;;;34.31;26.58
37856;BME280;23694;43.274;26.924;2022-08-19T12:48:45;98421.88;;;34.67;26.59
37856;BME280;23694;43.274;26.924;2022-08-19T12:51:15;98428.66;;;34.85;26.15
37856;BME280;23694;43.274;26.924;2022-08-19T12:53:42;98429.97;;;35.08;25.80
37856;BME280;23694;43.274;26.924;2022-08-19T12:56:10;98414.13;;;35.40;26.03
37856;BME280;23694;43.274;26.924;2022-08-19T12:58:36;98406.44;;;35.52;25.74
37856;BME280;23694;43.274;26.924;2022-08-19T13:01:10;98427.53;;;35.06;26.09
37856;BME280;23694;43.274;26.924;2022-08-19T13:03:37;98429.47;;;34.90;26.45
37856;BME280;23694;43.274;26.924;2022-08-19T13:06:03;98429.22;;;34.87;26.08
37856;BME280;23694;43.274;26.924;2022-08-19T13:08:29;98432.75;;;34.82;26.56
37856;BME280;23694;43.274;26.924;2022-08-19T13:10:55;98428.69;;;34.54;26.92